sensor_id;sensor_type;location;lat;lon;timestamp;P1;durP1;ratioP1;P2;durP2;ratioP2
49514;SDS011;35415;47.870;16.058;2022-07-23T00:00:24;13.18;;;8.15;;
49514;SDS011;35415;47.870;16.058;2022-07-23T00:02:51;9.77;;;8.10;;
49514;SDS011;35415;47.870;16.058;2022-07-23T00:05:18;11.45;;;8.48;;
49514;SDS011;35415;47.870;16.058;2022-07-23T00:07:55;11.05;;;8.25;;
49514;SDS011;35415;47.870;16.058;2022-07-23T00:10:35;9.48;;;8.40;;
49514;SDS011;35415;47.870;16.058;2022-07-23T00:13:04;9.70;;;8.55;;
49514;SDS011;35415;47.870;16.058;2022-07-23T00:15:31;9.43;;;8.10;;
49514;SDS011;35415;47.870;16.058;2022-07-23T00:17:59;9.30;;;8.13;;
49514;SDS011;35415;47.870;16.058;2022-07-23T00:20:29;9.10;;;8.20;;
49514;SDS011;35415;47.870;16.058;2022-07-23T00:22:59;9.48;;;8.32;;
49514;SDS011;35415;47.870;16.058;2022-07-23T00:25:35;9.05;;;8.07;;
49514;SDS011;35415;47.870;16.058;2022-07-23T00:28:05;11.18;;;7.97;;
49514;SDS011;35415;47.870;16.058;2022-07-23T00:30:36;13.38;;;8.40;;
49514;SDS011;35415;47.870;16.058;2022-07-23T00:33:06;11.30;;;8.18;;
49514;SDS011;35415;47.870;16.058;2022-07-23T00:35:39;10.57;;;8.60;;
49514;SDS011;35415;47.870;16.058;2022-07-23T00:38:08;10.02;;;8.27;;
49514;SDS011;35415;47.870;16.058;2022-07-23T00:40:39;9.90;;;8.27;;
49514;SDS011;35415;47.870;16.058;2022-07-23T00:43:08;10.07;;;9.07;;
49514;SDS011;35415;47.870;16.058;2022-07-23T00:45:37;10.60;;;8.40;;
49514;SDS011;35415;47.870;16.058;2022-07-23T00:48:04;10.20;;;8.95;;
49514;SDS011;35415;47.870;16.058;2022-07-23T00:50:37;10.82;;;8.23;;
49514;SDS011;35415;47.870;16.058;2022-07-23T00:53:04;9.80;;;8.80;;
49514;SDS011;35415;47.870;16.058;2022-07-23T00:55:37;10.45;;;8.68;;
49514;SDS011;35415;47.870;16.058;2022-07-23T00:58:08;9.80;;;8.80;;
49514;SDS011;35415;47.870;16.058;2022-07-23T01:00:38;10.40;;;8.35;;
49514;SDS011;35415;47.870;16.058;2022-07-23T01:03:05;9.60;;;8.65;;
49514;SDS011;35415;47.870;16.058;2022-07-23T01:05:32;10.88;;;8.80;;
49514;SDS011;35415;47.870;16.058;2022-07-23T01:08:00;9.05;;;8.10;;
49514;SDS011;35415;47.870;16.058;2022-07-23T01:10:28;12.73;;;8.18;;
49514;SDS011;35415;47.870;16.058;2022-07-23T01:12:58;11.30;;;8.73;;
49514;SDS011;35415;47.870;16.058;2022-07-23T01:15:28;11.30;;;8.48;;
49514;SDS011;35415;47.870;16.058;2022-07-23T01:17:58;10.68;;;8.13;;
49514;SDS011;35415;47.870;16.058;2022-07-23T01:20:25;9.10;;;7.63;;
49514;SDS011;35415;47.870;16.058;2022-07-23T01:22:54;9.23;;;8.10;;
49514;SDS011;35415;47.870;16.058;2022-07-23T01:25:26;10.65;;;8.57;;
49514;SDS011;35415;47.870;16.058;2022-07-23T01:27:54;10.02;;;8.07;;
49514;SDS011;35415;47.870;16.058;2022-07-23T01:30:21;9.55;;;8.23;;
49514;SDS011;35415;47.870;16.058;2022-07-23T01:32:49;9.88;;;8.68;;
49514;SDS011;35415;47.870;16.058;2022-07-23T01:35:19;10.23;;;8.52;;
49514;SDS011;35415;47.870;16.058;2022-07-23T01:37:46;10.43;;;8.25;;
49514;SDS011;35415;47.870;16.058;2022-07-23T01:40:15;8.68;;;7.50;;
49514;SDS011;35415;47.870;16.058;2022-07-23T01:42:43;10.45;;;8.48;;
49514;SDS011;35415;47.870;16.058;2022-07-23T01:45:10;9.52;;;8.10;;
49514;SDS011;35415;47.870;16.058;2022-07-23T01:47:44;11.98;;;8.45;;
49514;SDS011;35415;47.870;16.058;2022-07-23T01:50:15;11.73;;;7.85;;
49514;SDS011;35415;47.870;16.058;2022-07-23T01:52:42;9.35;;;8.02;;
49514;SDS011;35415;47.870;16.058;2022-07-23T01:55:10;9.18;;;8.27;;
49514;SDS011;35415;47.870;16.058;2022-07-23T01:57:41;11.32;;;8.43;;
49514;SDS011;35415;47.870;16.058;2022-07-23T02:00:11;9.20;;;8.40;;
49514;SDS011;35415;47.870;16.058;2022-07-23T02:02:43;13.35;;;7.90;;
49514;SDS011;35415;47.870;16.058;2022-07-23T02:05:16;13.98;;;8.93;;
49514;SDS011;35415;47.870;16.058;2022-07-23T02:07:46;9.02;;;8.13;;
49514;SDS011;35415;47.870;16.058;2022-07-23T02:10:13;8.57;;;7.68;;
49514;SDS011;35415;47.870;16.058;2022-07-23T02:12:43;10.45;;;7.97;;
49514;SDS011;35415;47.870;16.058;2022-07-23T02:15:10;10.10;;;7.80;;
49514;SDS011;35415;47.870;16.058;2022-07-23T02:17:38;8.63;;;7.88;;
49514;SDS011;35415;47.870;16.058;2022-07-23T02:20:09;8.55;;;7.50;;
49514;SDS011;35415;47.870;16.058;2022-07-23T02:22:37;8.88;;;7.75;;
49514;SDS011;35415;47.870;16.058;2022-07-23T02:25:07;9.07;;;8.18;;
49514;SDS011;35415;47.870;16.058;2022-07-23T02:27:35;13.35;;;8.15;;
49514;SDS011;35415;47.870;16.058;2022-07-23T02:30:05;10.00;;;7.80;;
49514;SDS011;35415;47.870;16.058;2022-07-23T02:32:41;8.60;;;7.68;;
49514;SDS011;35415;47.870;16.058;2022-07-23T02:35:11;9.35;;;8.32;;
49514;SDS011;35415;47.870;16.058;2022-07-23T02:37:39;8.32;;;7.43;;
49514;SDS011;35415;47.870;16.058;2022-07-23T02:40:06;8.40;;;7.60;;
49514;SDS011;35415;47.870;16.058;2022-07-23T02:42:35;8.20;;;7.40;;
49514;SDS011;35415;47.870;16.058;2022-07-23T02:45:07;11.30;;;7.85;;
49514;SDS011;35415;47.870;16.058;2022-07-23T02:47:38;8.60;;;6.90;;
49514;SDS011;35415;47.870;16.058;2022-07-23T02:50:06;8.27;;;7.30;;
49514;SDS011;35415;47.870;16.058;2022-07-23T02:52:37;8.18;;;7.35;;
49514;SDS011;35415;47.870;16.058;2022-07-23T02:55:05;8.02;;;7.00;;
49514;SDS011;35415;47.870;16.058;2022-07-23T02:57:33;15.98;;;8.02;;
49514;SDS011;35415;47.870;16.058;2022-07-23T03:00:00;8.38;;;7.57;;
49514;SDS011;35415;47.870;16.058;2022-07-23T03:02:30;10.40;;;7.38;;
49514;SDS011;35415;47.870;16.058;2022-07-23T03:07:29;9.38;;;7.45;;
49514;SDS011;35415;47.870;16.058;2022-07-23T03:09:57;9.20;;;7.43;;
49514;SDS011;35415;47.870;16.058;2022-07-23T03:12:25;9.90;;;8.05;;
49514;SDS011;35415;47.870;16.058;2022-07-23T03:14:52;8.80;;;7.57;;
49514;SDS011;35415;47.870;16.058;2022-07-23T03:17:22;8.55;;;7.28;;
49514;SDS011;35415;47.870;16.058;2022-07-23T03:22:27;8.85;;;7.78;;
49514;SDS011;35415;47.870;16.058;2022-07-23T03:24:54;9.35;;;8.10;;
49514;SDS011;35415;47.870;16.058;2022-07-23T03:27:29;8.27;;;7.00;;
49514;SDS011;35415;47.870;16.058;2022-07-23T03:30:10;8.40;;;6.85;;
49514;SDS011;35415;47.870;16.058;2022-07-23T03:32:39;9.93;;;6.63;;
49514;SDS011;35415;47.870;16.058;2022-07-23T03:35:12;9.27;;;7.55;;
49514;SDS011;35415;47.870;16.058;2022-07-23T03:37:46;9.05;;;7.55;;
49514;SDS011;35415;47.870;16.058;2022-07-23T03:40:16;10.70;;;7.32;;
49514;SDS011;35415;47.870;16.058;2022-07-23T03:42:44;7.88;;;7.18;;
49514;SDS011;35415;47.870;16.058;2022-07-23T03:45:13;14.18;;;7.93;;
49514;SDS011;35415;47.870;16.058;2022-07-23T03:47:40;10.77;;;7.95;;
49514;SDS011;35415;47.870;16.058;2022-07-23T03:50:11;8.35;;;7.57;;
49514;SDS011;35415;47.870;16.058;2022-07-23T03:52:44;10.70;;;7.70;;
49514;SDS011;35415;47.870;16.058;2022-07-23T03:55:13;8.18;;;7.38;;
49514;SDS011;35415;47.870;16.058;2022-07-23T03:57:41;9.48;;;7.38;;
49514;SDS011;35415;47.870;16.058;2022-07-23T04:00:16;10.23;;;8.30;;
49514;SDS011;35415;47.870;16.058;2022-07-23T04:02:47;9.18;;;8.27;;
49514;SDS011;35415;47.870;16.058;2022-07-23T04:05:18;8.63;;;7.75;;
49514;SDS011;35415;47.870;16.058;2022-07-23T04:07:45;9.05;;;8.07;;
49514;SDS011;35415;47.870;16.058;2022-07-23T04:10:12;8.55;;;7.75;;
49514;SDS011;35415;47.870;16.058;2022-07-23T04:12:50;9.05;;;7.72;;
49514;SDS011;35415;47.870;16.058;2022-07-23T04:15:20;11.20;;;8.30;;
49514;SDS011;35415;47.870;16.058;2022-07-23T04:17:49;8.93;;;6.90;;
49514;SDS011;35415;47.870;16.058;2022-07-23T04:20:20;8.75;;;7.47;;
49514;SDS011;35415;47.870;16.058;2022-07-23T04:22:50;8.13;;;7.35;;
49514;SDS011;35415;47.870;16.058;2022-07-23T04:25:19;9.50;;;7.78;;
49514;SDS011;35415;47.870;16.058;2022-07-23T04:27:53;9.15;;;7.32;;
49514;SDS011;35415;47.870;16.058;2022-07-23T04:30:22;10.98;;;7.82;;
49514;SDS011;35415;47.870;16.058;2022-07-23T04:32:54;10.48;;;8.20;;
49514;SDS011;35415;47.870;16.058;2022-07-23T04:35:32;10.98;;;8.48;;
49514;SDS011;35415;47.870;16.058;2022-07-23T04:38:00;9.43;;;7.82;;
49514;SDS011;35415;47.870;16.058;2022-07-23T04:40:31;10.52;;;8.48;;
49514;SDS011;35415;47.870;16.058;2022-07-23T04:43:06;10.10;;;8.80;;
49514;SDS011;35415;47.870;16.058;2022-07-23T04:48:06;9.60;;;8.45;;
49514;SDS011;35415;47.870;16.058;2022-07-23T04:50:40;11.20;;;8.82;;
49514;SDS011;35415;47.870;16.058;2022-07-23T04:53:08;12.05;;;8.68;;
49514;SDS011;35415;47.870;16.058;2022-07-23T04:55:36;9.95;;;8.30;;
49514;SDS011;35415;47.870;16.058;2022-07-23T04:58:04;11.23;;;8.07;;
49514;SDS011;35415;47.870;16.058;2022-07-23T05:00:34;11.07;;;8.38;;
49514;SDS011;35415;47.870;16.058;2022-07-23T05:03:02;9.65;;;8.65;;
49514;SDS011;35415;47.870;16.058;2022-07-23T05:05:31;9.52;;;8.05;;
49514;SDS011;35415;47.870;16.058;2022-07-23T05:08:03;9.85;;;8.65;;
49514;SDS011;35415;47.870;16.058;2022-07-23T05:10:34;9.52;;;8.50;;
49514;SDS011;35415;47.870;16.058;2022-07-23T05:13:04;9.38;;;8.10;;
49514;SDS011;35415;47.870;16.058;2022-07-23T05:15:37;9.43;;;8.40;;
49514;SDS011;35415;47.870;16.058;2022-07-23T05:18:04;9.77;;;8.75;;
49514;SDS011;35415;47.870;16.058;2022-07-23T05:20:33;11.75;;;8.48;;
49514;SDS011;35415;47.870;16.058;2022-07-23T05:23:04;12.90;;;7.90;;
49514;SDS011;35415;47.870;16.058;2022-07-23T05:25:39;10.35;;;7.57;;
49514;SDS011;35415;47.870;16.058;2022-07-23T05:28:07;7.97;;;7.18;;
49514;SDS011;35415;47.870;16.058;2022-07-23T05:30:35;8.73;;;7.90;;
49514;SDS011;35415;47.870;16.058;2022-07-23T05:33:03;9.38;;;7.57;;
49514;SDS011;35415;47.870;16.058;2022-07-23T05:35:32;8.60;;;7.72;;
49514;SDS011;35415;47.870;16.058;2022-07-23T05:38:00;8.85;;;7.50;;
49514;SDS011;35415;47.870;16.058;2022-07-23T05:40:30;8.10;;;7.30;;
49514;SDS011;35415;47.870;16.058;2022-07-23T05:43:02;9.63;;;7.85;;
49514;SDS011;35415;47.870;16.058;2022-07-23T05:45:31;8.55;;;7.65;;
49514;SDS011;35415;47.870;16.058;2022-07-23T05:47:58;7.55;;;6.85;;
49514;SDS011;35415;47.870;16.058;2022-07-23T05:50:25;7.20;;;6.50;;
49514;SDS011;35415;47.870;16.058;2022-07-23T05:52:52;9.23;;;7.22;;
49514;SDS011;35415;47.870;16.058;2022-07-23T05:55:25;7.53;;;6.72;;
49514;SDS011;35415;47.870;16.058;2022-07-23T05:57:58;8.75;;;7.18;;
49514;SDS011;35415;47.870;16.058;2022-07-23T06:00:26;10.05;;;7.15;;
49514;SDS011;35415;47.870;16.058;2022-07-23T06:02:54;7.85;;;7.05;;
49514;SDS011;35415;47.870;16.058;2022-07-23T06:05:21;7.50;;;6.75;;
49514;SDS011;35415;47.870;16.058;2022-07-23T06:07:49;8.80;;;6.72;;
49514;SDS011;35415;47.870;16.058;2022-07-23T06:10:17;10.07;;;6.20;;
49514;SDS011;35415;47.870;16.058;2022-07-23T06:12:44;7.13;;;6.38;;
49514;SDS011;35415;47.870;16.058;2022-07-23T06:15:14;7.78;;;6.32;;
49514;SDS011;35415;47.870;16.058;2022-07-23T06:17:42;6.72;;;5.53;;
49514;SDS011;35415;47.870;16.058;2022-07-23T06:20:09;5.80;;;4.70;;
49514;SDS011;35415;47.870;16.058;2022-07-23T06:22:37;6.38;;;5.20;;
49514;SDS011;35415;47.870;16.058;2022-07-23T06:25:05;5.75;;;5.25;;
49514;SDS011;35415;47.870;16.058;2022-07-23T06:27:34;5.80;;;5.22;;
49514;SDS011;35415;47.870;16.058;2022-07-23T06:30:01;5.35;;;4.85;;
49514;SDS011;35415;47.870;16.058;2022-07-23T06:32:29;5.15;;;4.65;;
49514;SDS011;35415;47.870;16.058;2022-07-23T06:34:57;6.72;;;5.10;;
49514;SDS011;35415;47.870;16.058;2022-07-23T06:37:24;6.82;;;5.40;;
49514;SDS011;35415;47.870;16.058;2022-07-23T06:39:51;5.60;;;5.10;;
49514;SDS011;35415;47.870;16.058;2022-07-23T06:42:22;5.65;;;5.05;;
49514;SDS011;35415;47.870;16.058;2022-07-23T06:44:49;6.03;;;4.95;;
49514;SDS011;35415;47.870;16.058;2022-07-23T06:47:18;5.50;;;5.00;;
49514;SDS011;35415;47.870;16.058;2022-07-23T06:49:46;8.65;;;4.90;;
49514;SDS011;35415;47.870;16.058;2022-07-23T06:52:19;5.97;;;4.50;;
49514;SDS011;35415;47.870;16.058;2022-07-23T06:54:46;5.38;;;4.88;;
49514;SDS011;35415;47.870;16.058;2022-07-23T06:57:15;6.57;;;5.00;;
49514;SDS011;35415;47.870;16.058;2022-07-23T06:59:42;4.78;;;4.25;;
49514;SDS011;35415;47.870;16.058;2022-07-23T07:02:09;5.57;;;4.30;;
49514;SDS011;35415;47.870;16.058;2022-07-23T07:04:36;9.40;;;4.10;;
49514;SDS011;35415;47.870;16.058;2022-07-23T07:07:05;4.50;;;4.10;;
49514;SDS011;35415;47.870;16.058;2022-07-23T07:09:32;8.48;;;3.78;;
49514;SDS011;35415;47.870;16.058;2022-07-23T07:12:01;4.95;;;3.70;;
49514;SDS011;35415;47.870;16.058;2022-07-23T07:14:29;4.43;;;4.03;;
49514;SDS011;35415;47.870;16.058;2022-07-23T07:16:56;10.32;;;3.92;;
49514;SDS011;35415;47.870;16.058;2022-07-23T07:19:23;7.65;;;4.20;;
49514;SDS011;35415;47.870;16.058;2022-07-23T07:21:50;5.65;;;3.25;;
49514;SDS011;35415;47.870;16.058;2022-07-23T07:24:19;6.80;;;4.05;;
49514;SDS011;35415;47.870;16.058;2022-07-23T07:26:48;4.20;;;3.00;;
49514;SDS011;35415;47.870;16.058;2022-07-23T07:29:15;3.17;;;2.88;;
49514;SDS011;35415;47.870;16.058;2022-07-23T07:31:43;3.47;;;3.10;;
49514;SDS011;35415;47.870;16.058;2022-07-23T07:34:10;3.55;;;3.25;;
49514;SDS011;35415;47.870;16.058;2022-07-23T07:36:37;3.20;;;2.90;;
49514;SDS011;35415;47.870;16.058;2022-07-23T07:39:05;3.40;;;3.10;;
49514;SDS011;35415;47.870;16.058;2022-07-23T07:41:43;4.55;;;2.88;;
49514;SDS011;35415;47.870;16.058;2022-07-23T07:44:11;3.05;;;2.75;;
49514;SDS011;35415;47.870;16.058;2022-07-23T07:46:38;4.10;;;3.15;;
49514;SDS011;35415;47.870;16.058;2022-07-23T07:49:05;3.33;;;3.03;;
49514;SDS011;35415;47.870;16.058;2022-07-23T07:51:32;3.35;;;3.05;;
49514;SDS011;35415;47.870;16.058;2022-07-23T07:53:59;3.17;;;2.75;;
49514;SDS011;35415;47.870;16.058;2022-07-23T07:56:27;3.63;;;3.28;;
49514;SDS011;35415;47.870;16.058;2022-07-23T07:58:55;5.63;;;3.20;;
49514;SDS011;35415;47.870;16.058;2022-07-23T08:01:23;3.08;;;2.85;;
49514;SDS011;35415;47.870;16.058;2022-07-23T08:03:50;3.97;;;3.10;;
49514;SDS011;35415;47.870;16.058;2022-07-23T08:06:17;3.70;;;3.20;;
49514;SDS011;35415;47.870;16.058;2022-07-23T08:08:44;3.20;;;3.00;;
49514;SDS011;35415;47.870;16.058;2022-07-23T08:11:11;3.95;;;2.80;;
49514;SDS011;35415;47.870;16.058;2022-07-23T08:13:39;4.40;;;3.00;;
49514;SDS011;35415;47.870;16.058;2022-07-23T08:16:08;2.90;;;2.67;;
49514;SDS011;35415;47.870;16.058;2022-07-23T08:18:35;3.30;;;3.00;;
49514;SDS011;35415;47.870;16.058;2022-07-23T08:21:02;4.53;;;3.17;;
49514;SDS011;35415;47.870;16.058;2022-07-23T08:23:30;5.78;;;3.22;;
49514;SDS011;35415;47.870;16.058;2022-07-23T08:25:59;3.10;;;2.90;;
49514;SDS011;35415;47.870;16.058;2022-07-23T08:28:27;3.40;;;3.10;;
49514;SDS011;35415;47.870;16.058;2022-07-23T08:30:54;3.38;;;3.05;;
49514;SDS011;35415;47.870;16.058;2022-07-23T08:33:23;3.50;;;3.20;;
49514;SDS011;35415;47.870;16.058;2022-07-23T08:35:50;3.55;;;3.25;;
49514;SDS011;35415;47.870;16.058;2022-07-23T08:38:20;4.10;;;3.30;;
49514;SDS011;35415;47.870;16.058;2022-07-23T08:40:50;3.72;;;3.42;;
49514;SDS011;35415;47.870;16.058;2022-07-23T08:43:19;3.10;;;2.90;;
49514;SDS011;35415;47.870;16.058;2022-07-23T08:45:49;4.32;;;3.67;;
49514;SDS011;35415;47.870;16.058;2022-07-23T08:48:18;3.10;;;2.90;;
49514;SDS011;35415;47.870;16.058;2022-07-23T08:50:49;3.40;;;3.10;;
49514;SDS011;35415;47.870;16.058;2022-07-23T08:53:17;3.38;;;3.08;;
49514;SDS011;35415;47.870;16.058;2022-07-23T08:55:45;3.20;;;2.90;;
49514;SDS011;35415;47.870;16.058;2022-07-23T08:58:14;3.55;;;3.25;;
49514;SDS011;35415;47.870;16.058;2022-07-23T09:00:41;3.55;;;3.25;;
49514;SDS011;35415;47.870;16.058;2022-07-23T09:03:11;7.25;;;4.20;;
49514;SDS011;35415;47.870;16.058;2022-07-23T09:05:43;3.58;;;3.28;;
49514;SDS011;35415;47.870;16.058;2022-07-23T09:08:12;3.58;;;3.28;;
49514;SDS011;35415;47.870;16.058;2022-07-23T09:10:48;3.90;;;3.60;;
49514;SDS011;35415;47.870;16.058;2022-07-23T09:13:31;3.28;;;2.97;;
49514;SDS011;35415;47.870;16.058;2022-07-23T09:16:02;4.30;;;3.30;;
49514;SDS011;35415;47.870;16.058;2022-07-23T09:18:36;4.35;;;3.03;;
49514;SDS011;35415;47.870;16.058;2022-07-23T09:21:18;5.03;;;3.38;;
49514;SDS011;35415;47.870;16.058;2022-07-23T09:23:51;3.90;;;3.00;;
49514;SDS011;35415;47.870;16.058;2022-07-23T09:26:33;3.63;;;3.33;;
49514;SDS011;35415;47.870;16.058;2022-07-23T09:29:06;3.70;;;3.40;;
49514;SDS011;35415;47.870;16.058;2022-07-23T09:31:48;4.75;;;3.40;;
49514;SDS011;35415;47.870;16.058;2022-07-23T09:34:20;4.75;;;3.17;;
49514;SDS011;35415;47.870;16.058;2022-07-23T09:36:48;4.13;;;3.35;;
49514;SDS011;35415;47.870;16.058;2022-07-23T09:39:24;3.55;;;3.25;;
49514;SDS011;35415;47.870;16.058;2022-07-23T09:41:57;4.05;;;3.65;;
49514;SDS011;35415;47.870;16.058;2022-07-23T09:44:25;3.35;;;3.03;;
49514;SDS011;35415;47.870;16.058;2022-07-23T09:47:07;5.03;;;3.33;;
49514;SDS011;35415;47.870;16.058;2022-07-23T09:49:34;3.63;;;3.33;;
49514;SDS011;35415;47.870;16.058;2022-07-23T09:52:07;3.53;;;3.22;;
49514;SDS011;35415;47.870;16.058;2022-07-23T09:54:36;3.40;;;3.10;;
49514;SDS011;35415;47.870;16.058;2022-07-23T09:57:06;3.35;;;3.05;;
49514;SDS011;35415;47.870;16.058;2022-07-23T09:59:38;4.35;;;3.55;;
49514;SDS011;35415;47.870;16.058;2022-07-23T10:02:08;5.20;;;3.10;;
49514;SDS011;35415;47.870;16.058;2022-07-23T10:04:41;6.07;;;3.53;;
49514;SDS011;35415;47.870;16.058;2022-07-23T10:07:10;3.50;;;3.20;;
49514;SDS011;35415;47.870;16.058;2022-07-23T10:09:40;3.60;;;3.30;;
49514;SDS011;35415;47.870;16.058;2022-07-23T10:12:10;3.78;;;3.47;;
49514;SDS011;35415;47.870;16.058;2022-07-23T10:14:52;4.47;;;3.28;;
49514;SDS011;35415;47.870;16.058;2022-07-23T10:17:20;3.55;;;3.25;;
49514;SDS011;35415;47.870;16.058;2022-07-23T10:19:52;3.90;;;3.60;;
49514;SDS011;35415;47.870;16.058;2022-07-23T10:22:23;3.67;;;3.38;;
49514;SDS011;35415;47.870;16.058;2022-07-23T10:25:04;3.97;;;3.45;;
49514;SDS011;35415;47.870;16.058;2022-07-23T10:30:38;5.72;;;3.90;;
49514;SDS011;35415;47.870;16.058;2022-07-23T10:33:17;3.88;;;3.42;;
49514;SDS011;35415;47.870;16.058;2022-07-23T10:35:53;4.15;;;3.63;;
49514;SDS011;35415;47.870;16.058;2022-07-23T10:38:27;5.57;;;3.50;;
49514;SDS011;35415;47.870;16.058;2022-07-23T10:41:00;3.70;;;3.40;;
49514;SDS011;35415;47.870;16.058;2022-07-23T10:43:29;3.35;;;3.05;;
49514;SDS011;35415;47.870;16.058;2022-07-23T10:54:52;7.70;;;3.80;;
49514;SDS011;35415;47.870;16.058;2022-07-23T11:02:49;4.90;;;3.72;;
49514;SDS011;35415;47.870;16.058;2022-07-23T11:05:18;3.60;;;3.20;;
49514;SDS011;35415;47.870;16.058;2022-07-23T11:10:52;3.28;;;3.08;;
49514;SDS011;35415;47.870;16.058;2022-07-23T11:13:28;6.68;;;3.63;;
49514;SDS011;35415;47.870;16.058;2022-07-23T11:16:14;4.53;;;4.10;;
49514;SDS011;35415;47.870;16.058;2022-07-23T11:18:56;6.13;;;4.32;;
49514;SDS011;35415;47.870;16.058;2022-07-23T11:21:42;4.78;;;4.35;;
49514;SDS011;35415;47.870;16.058;2022-07-23T11:24:12;4.60;;;4.20;;
49514;SDS011;35415;47.870;16.058;2022-07-23T11:26:42;6.00;;;3.80;;
49514;SDS011;35415;47.870;16.058;2022-07-23T11:32:29;5.47;;;4.15;;
49514;SDS011;35415;47.870;16.058;2022-07-23T11:35:01;4.97;;;4.47;;
49514;SDS011;35415;47.870;16.058;2022-07-23T11:37:39;4.60;;;3.75;;
49514;SDS011;35415;47.870;16.058;2022-07-23T11:40:08;4.28;;;3.88;;
49514;SDS011;35415;47.870;16.058;2022-07-23T11:42:39;6.88;;;4.05;;
49514;SDS011;35415;47.870;16.058;2022-07-23T11:45:23;3.83;;;3.53;;
49514;SDS011;35415;47.870;16.058;2022-07-23T11:47:54;5.15;;;3.50;;
49514;SDS011;35415;47.870;16.058;2022-07-23T11:50:24;3.67;;;3.38;;
49514;SDS011;35415;47.870;16.058;2022-07-23T11:52:54;4.05;;;3.30;;
49514;SDS011;35415;47.870;16.058;2022-07-23T11:55:22;3.47;;;3.17;;
49514;SDS011;35415;47.870;16.058;2022-07-23T11:57:50;69.10;;;7.10;;
49514;SDS011;35415;47.870;16.058;2022-07-23T12:00:19;5.03;;;3.53;;
49514;SDS011;35415;47.870;16.058;2022-07-23T12:02:48;18.20;;;4.00;;
49514;SDS011;35415;47.870;16.058;2022-07-23T12:05:19;4.43;;;3.15;;
49514;SDS011;35415;47.870;16.058;2022-07-23T12:07:50;5.43;;;3.13;;
49514;SDS011;35415;47.870;16.058;2022-07-23T12:10:19;4.65;;;3.67;;
49514;SDS011;35415;47.870;16.058;2022-07-23T12:12:49;3.97;;;3.47;;
49514;SDS011;35415;47.870;16.058;2022-07-23T12:15:19;4.05;;;3.60;;
49514;SDS011;35415;47.870;16.058;2022-07-23T12:17:49;7.03;;;4.03;;
49514;SDS011;35415;47.870;16.058;2022-07-23T12:20:20;8.23;;;3.50;;
49514;SDS011;35415;47.870;16.058;2022-07-23T12:22:52;9.40;;;4.20;;
49514;SDS011;35415;47.870;16.058;2022-07-23T12:25:24;7.80;;;4.13;;
49514;SDS011;35415;47.870;16.058;2022-07-23T12:27:59;6.63;;;4.40;;
49514;SDS011;35415;47.870;16.058;2022-07-23T12:30:29;7.75;;;5.07;;
49514;SDS011;35415;47.870;16.058;2022-07-23T12:32:58;4.75;;;4.25;;
49514;SDS011;35415;47.870;16.058;2022-07-23T12:35:32;4.45;;;4.05;;
49514;SDS011;35415;47.870;16.058;2022-07-23T12:38:04;7.18;;;4.28;;
49514;SDS011;35415;47.870;16.058;2022-07-23T12:40:34;4.65;;;3.95;;
49514;SDS011;35415;47.870;16.058;2022-07-23T12:43:03;4.78;;;4.38;;
49514;SDS011;35415;47.870;16.058;2022-07-23T12:45:42;4.25;;;3.83;;
49514;SDS011;35415;47.870;16.058;2022-07-23T12:48:22;9.30;;;4.80;;
49514;SDS011;35415;47.870;16.058;2022-07-23T12:50:53;9.50;;;5.63;;
49514;SDS011;35415;47.870;16.058;2022-07-23T12:53:25;25.08;;;6.57;;
49514;SDS011;35415;47.870;16.058;2022-07-23T12:55:57;11.02;;;4.57;;
49514;SDS011;35415;47.870;16.058;2022-07-23T12:58:26;4.78;;;4.38;;
49514;SDS011;35415;47.870;16.058;2022-07-23T13:00:55;7.75;;;4.38;;
49514;SDS011;35415;47.870;16.058;2022-07-23T13:03:28;4.07;;;3.70;;
49514;SDS011;35415;47.870;16.058;2022-07-23T13:06:03;5.57;;;3.75;;
49514;SDS011;35415;47.870;16.058;2022-07-23T13:08:33;5.93;;;3.92;;
49514;SDS011;35415;47.870;16.058;2022-07-23T13:11:05;4.97;;;3.80;;
49514;SDS011;35415;47.870;16.058;2022-07-23T13:13:34;4.07;;;3.78;;
49514;SDS011;35415;47.870;16.058;2022-07-23T13:16:02;4.35;;;3.95;;
49514;SDS011;35415;47.870;16.058;2022-07-23T13:18:29;4.07;;;3.70;;
49514;SDS011;35415;47.870;16.058;2022-07-23T13:20:57;4.72;;;3.58;;
49514;SDS011;35415;47.870;16.058;2022-07-23T13:23:26;3.53;;;3.22;;
49514;SDS011;35415;47.870;16.058;2022-07-23T13:25:53;4.85;;;3.15;;
49514;SDS011;35415;47.870;16.058;2022-07-23T13:28:23;3.30;;;2.97;;
49514;SDS011;35415;47.870;16.058;2022-07-23T13:30:55;3.65;;;3.33;;
49514;SDS011;35415;47.870;16.058;2022-07-23T13:33:23;4.63;;;3.20;;
49514;SDS011;35415;47.870;16.058;2022-07-23T13:35:51;8.85;;;3.72;;
49514;SDS011;35415;47.870;16.058;2022-07-23T13:38:19;20.25;;;4.53;;
49514;SDS011;35415;47.870;16.058;2022-07-23T13:40:49;3.40;;;3.10;;
49514;SDS011;35415;47.870;16.058;2022-07-23T13:43:17;3.25;;;2.95;;
49514;SDS011;35415;47.870;16.058;2022-07-23T13:45:46;3.30;;;2.85;;
49514;SDS011;35415;47.870;16.058;2022-07-23T13:48:14;4.50;;;3.13;;
49514;SDS011;35415;47.870;16.058;2022-07-23T13:50:45;4.53;;;3.25;;
49514;SDS011;35415;47.870;16.058;2022-07-23T13:53:17;3.08;;;2.85;;
49514;SDS011;35415;47.870;16.058;2022-07-23T13:55:46;3.38;;;3.17;;
49514;SDS011;35415;47.870;16.058;2022-07-23T13:58:17;3.50;;;3.20;;
49514;SDS011;35415;47.870;16.058;2022-07-23T14:00:45;4.40;;;3.20;;
49514;SDS011;35415;47.870;16.058;2022-07-23T14:03:16;3.17;;;2.88;;
49514;SDS011;35415;47.870;16.058;2022-07-23T14:05:44;4.50;;;3.45;;
49514;SDS011;35415;47.870;16.058;2022-07-23T14:08:11;4.45;;;3.22;;
49514;SDS011;35415;47.870;16.058;2022-07-23T14:10:38;3.88;;;3.58;;
49514;SDS011;35415;47.870;16.058;2022-07-23T14:13:06;3.10;;;2.90;;
49514;SDS011;35415;47.870;16.058;2022-07-23T14:15:34;4.18;;;3.25;;
49514;SDS011;35415;47.870;16.058;2022-07-23T14:18:04;3.22;;;3.03;;
49514;SDS011;35415;47.870;16.058;2022-07-23T14:20:31;3.70;;;3.33;;
49514;SDS011;35415;47.870;16.058;2022-07-23T14:22:58;6.15;;;3.20;;
49514;SDS011;35415;47.870;16.058;2022-07-23T14:25:26;4.43;;;3.08;;
49514;SDS011;35415;47.870;16.058;2022-07-23T14:27:53;4.35;;;3.35;;
49514;SDS011;35415;47.870;16.058;2022-07-23T14:30:25;4.43;;;3.20;;
49514;SDS011;35415;47.870;16.058;2022-07-23T14:32:54;22.75;;;4.65;;
49514;SDS011;35415;47.870;16.058;2022-07-23T14:37:51;3.70;;;3.40;;
49514;SDS011;35415;47.870;16.058;2022-07-23T14:40:18;3.45;;;3.15;;
49514;SDS011;35415;47.870;16.058;2022-07-23T14:42:45;3.67;;;3.38;;
49514;SDS011;35415;47.870;16.058;2022-07-23T14:45:12;3.58;;;3.28;;
49514;SDS011;35415;47.870;16.058;2022-07-23T14:47:42;3.38;;;3.08;;
49514;SDS011;35415;47.870;16.058;2022-07-23T14:50:11;3.30;;;3.10;;
49514;SDS011;35415;47.870;16.058;2022-07-23T14:52:38;4.28;;;3.50;;
49514;SDS011;35415;47.870;16.058;2022-07-23T14:55:05;3.90;;;3.60;;
49514;SDS011;35415;47.870;16.058;2022-07-23T14:57:33;4.25;;;3.85;;
49514;SDS011;35415;47.870;16.058;2022-07-23T15:00:00;6.25;;;3.50;;
49514;SDS011;35415;47.870;16.058;2022-07-23T15:02:28;3.40;;;3.10;;
49514;SDS011;35415;47.870;16.058;2022-07-23T15:04:58;3.72;;;3.42;;
49514;SDS011;35415;47.870;16.058;2022-07-23T15:07:29;3.20;;;3.00;;
49514;SDS011;35415;47.870;16.058;2022-07-23T15:09:59;3.53;;;3.15;;
49514;SDS011;35415;47.870;16.058;2022-07-23T15:12:26;5.32;;;3.97;;
49514;SDS011;35415;47.870;16.058;2022-07-23T15:14:54;3.95;;;3.40;;
49514;SDS011;35415;47.870;16.058;2022-07-23T15:17:23;3.45;;;3.03;;
49514;SDS011;35415;47.870;16.058;2022-07-23T15:19:51;3.30;;;3.10;;
49514;SDS011;35415;47.870;16.058;2022-07-23T15:22:22;4.88;;;4.18;;